sensor_id;sensor_type;location;lat;lon;timestamp;temperature;humidity
29813;DHT22;16707;48.106;11.548;2023-08-20T00:01:26;19.10;99.90
29813;DHT22;16707;48.106;11.548;2023-08-20T00:03:55;19.00;99.90
29813;DHT22;16707;48.106;11.548;2023-08-20T00:06:23;18.90;99.90
29813;DHT22;16707;48.106;11.548;2023-08-20T00:08:50;18.90;99.90
29813;DHT22;16707;48.106;11.548;2023-08-20T00:11:17;18.80;99.90
29813;DHT22;16707;48.106;11.548;2023-08-20T00:13:45;18.70;99.90
29813;DHT22;16707;48.106;11.548;2023-08-20T00:16:14;18.70;99.90
29813;DHT22;16707;48.106;11.548;2023-08-20T00:18:41;18.60;99.90
29813;DHT22;16707;48.106;11.548;2023-08-20T00:21:09;18.60;99.90
29813;DHT22;16707;48.106;11.548;2023-08-20T00:23:37;18.60;99.90
29813;DHT22;16707;48.106;11.548;2023-08-20T00:26:05;18.50;99.90
29813;DHT22;16707;48.106;11.548;2023-08-20T00:28:32;18.60;99.90
29813;DHT22;16707;48.106;11.548;2023-08-20T00:31:00;18.50;99.90
29813;DHT22;16707;48.106;11.548;2023-08-20T00:33:29;18.50;99.90
29813;DHT22;16707;48.106;11.548;2023-08-20T00:35:56;18.40;99.90
29813;DHT22;16707;48.106;11.548;2023-08-20T00:38:25;18.50;99.90
29813;DHT22;16707;48.106;11.548;2023-08-20T00:40:52;18.40;99.90
29813;DHT22;16707;48.106;11.548;2023-08-20T00:43:19;18.50;99.90
29813;DHT22;16707;48.106;11.548;2023-08-20T00:45:46;18.50;99.90
29813;DHT22;16707;48.106;11.548;2023-08-20T00:48:13;18.50;99.90
29813;DHT22;16707;48.106;11.548;2023-08-20T00:50:42;18.60;99.90
29813;DHT22;16707;48.106;11.548;2023-08-20T00:53:10;18.60;99.90
29813;DHT22;16707;48.106;11.548;2023-08-20T00:55:38;18.60;99.90
29813;DHT22;16707;48.106;11.548;2023-08-20T00:58:06;18.60;99.90
29813;DHT22;16707;48.106;11.548;2023-08-20T01:00:33;18.60;99.90
29813;DHT22;16707;48.106;11.548;2023-08-20T01:03:00;18.60;99.90
29813;DHT22;16707;48.106;11.548;2023-08-20T01:05:29;18.50;99.90
29813;DHT22;16707;48.106;11.548;2023-08-20T01:08:17;18.50;99.90
29813;DHT22;16707;48.106;11.548;2023-08-20T01:10:50;18.50;99.90
29813;DHT22;16707;48.106;11.548;2023-08-20T01:13:19;18.50;99.90
29813;DHT22;16707;48.106;11.548;2023-08-20T01:15:46;18.50;99.90
29813;DHT22;16707;48.106;11.548;2023-08-20T01:18:13;18.50;99.90
29813;DHT22;16707;48.106;11.548;2023-08-20T01:20:44;18.50;99.90
29813;DHT22;16707;48.106;11.548;2023-08-20T01:23:54;18.50;99.90
29813;DHT22;16707;48.106;11.548;2023-08-20T01:26:48;18.40;99.90
29813;DHT22;16707;48.106;11.548;2023-08-20T01:29:25;18.40;99.90
29813;DHT22;16707;48.106;11.548;2023-08-20T01:31:53;18.30;99.90
29813;DHT22;16707;48.106;11.548;2023-08-20T01:34:21;18.20;99.90
29813;DHT22;16707;48.106;11.548;2023-08-20T01:36:48;18.10;99.90
29813;DHT22;16707;48.106;11.548;2023-08-20T01:39:16;18.10;99.90
29813;DHT22;16707;48.106;11.548;2023-08-20T01:41:44;18.00;99.90
29813;DHT22;16707;48.106;11.548;2023-08-20T01:44:11;17.90;99.90
29813;DHT22;16707;48.106;11.548;2023-08-20T01:46:39;17.90;99.90
29813;DHT22;16707;48.106;11.548;2023-08-20T01:49:07;17.90;99.90
29813;DHT22;16707;48.106;11.548;2023-08-20T01:51:34;17.80;99.90
29813;DHT22;16707;48.106;11.548;2023-08-20T01:54:02;17.80;99.90
29813;DHT22;16707;48.106;11.548;2023-08-20T01:56:29;17.80;99.90
29813;DHT22;16707;48.106;11.548;2023-08-20T01:58:56;17.70;99.90
29813;DHT22;16707;48.106;11.548;2023-08-20T02:01:23;17.70;99.90
29813;DHT22;16707;48.106;11.548;2023-08-20T02:03:52;17.70;99.90
29813;DHT22;16707;48.106;11.548;2023-08-20T02:06:19;17.70;99.90
29813;DHT22;16707;48.106;11.548;2023-08-20T02:08:46;17.70;99.90
29813;DHT22;16707;48.106;11.548;2023-08-20T02:11:14;17.60;99.90
29813;DHT22;16707;48.106;11.548;2023-08-20T02:13:41;17.60;99.90
29813;DHT22;16707;48.106;11.548;2023-08-20T02:16:08;17.50;99.90
29813;DHT22;16707;48.106;11.548;2023-08-20T02:18:35;17.40;99.90
29813;DHT22;16707;48.106;11.548;2023-08-20T02:21:04;17.40;99.90
29813;DHT22;16707;48.106;11.548;2023-08-20T02:23:31;17.40;99.90
29813;DHT22;16707;48.106;11.548;2023-08-20T02:25:57;17.40;99.90
29813;DHT22;16707;48.106;11.548;2023-08-20T02:28:25;17.40;99.90
29813;DHT22;16707;48.106;11.548;2023-08-20T02:30:53;17.40;99.90
29813;DHT22;16707;48.106;11.548;2023-08-20T02:33:20;17.30;99.90
29813;DHT22;16707;48.106;11.548;2023-08-20T02:35:47;17.30;99.90
29813;DHT22;16707;48.106;11.548;2023-08-20T02:38:15;17.30;99.90
29813;DHT22;16707;48.106;11.548;2023-08-20T02:40:42;17.30;99.90
29813;DHT22;16707;48.106;11.548;2023-08-20T02:43:09;17.30;99.90
29813;DHT22;16707;48.106;11.548;2023-08-20T02:45:40;17.20;99.90
29813;DHT22;16707;48.106;11.548;2023-08-20T02:48:08;17.20;99.90
29813;DHT22;16707;48.106;11.548;2023-08-20T02:50:35;17.20;99.90
29813;DHT22;16707;48.106;11.548;2023-08-20T02:53:03;17.10;99.90
29813;DHT22;16707;48.106;11.548;2023-08-20T02:55:32;17.20;99.90
29813;DHT22;16707;48.106;11.548;2023-08-20T02:58:01;17.10;99.90
29813;DHT22;16707;48.106;11.548;2023-08-20T03:00:29;17.10;99.90
29813;DHT22;16707;48.106;11.548;2023-08-20T03:02:56;17.10;99.90
29813;DHT22;16707;48.106;11.548;2023-08-20T03:05:23;17.00;99.90
29813;DHT22;16707;48.106;11.548;2023-08-20T03:07:50;17.00;99.90
29813;DHT22;16707;48.106;11.548;2023-08-20T03:10:17;17.00;99.90
29813;DHT22;16707;48.106;11.548;2023-08-20T03:12:46;17.00;99.90
29813;DHT22;16707;48.106;11.548;2023-08-20T03:15:14;17.00;99.90
29813;DHT22;16707;48.106;11.548;2023-08-20T03:17:41;16.90;99.90
29813;DHT22;16707;48.106;11.548;2023-08-20T03:20:09;16.90;99.90
29813;DHT22;16707;48.106;11.548;2023-08-20T03:22:38;17.00;99.90
29813;DHT22;16707;48.106;11.548;2023-08-20T03:25:05;16.90;99.90
29813;DHT22;16707;48.106;11.548;2023-08-20T03:27:33;16.90;99.90
29813;DHT22;16707;48.106;11.548;2023-08-20T03:30:02;16.90;99.90
29813;DHT22;16707;48.106;11.548;2023-08-20T03:32:30;16.80;99.90
29813;DHT22;16707;48.106;11.548;2023-08-20T03:34:57;16.80;99.90
29813;DHT22;16707;48.106;11.548;2023-08-20T03:37:24;16.80;99.90
29813;DHT22;16707;48.106;11.548;2023-08-20T03:39:52;16.80;99.90
29813;DHT22;16707;48.106;11.548;2023-08-20T03:42:19;16.80;99.90
29813;DHT22;16707;48.106;11.548;2023-08-20T03:44:46;16.80;99.90
29813;DHT22;16707;48.106;11.548;2023-08-20T03:47:15;16.80;99.90
29813;DHT22;16707;48.106;11.548;2023-08-20T03:49:45;16.80;99.90
29813;DHT22;16707;48.106;11.548;2023-08-20T03:52:15;16.80;99.90
29813;DHT22;16707;48.106;11.548;2023-08-20T03:54:42;16.80;99.90
29813;DHT22;16707;48.106;11.548;2023-08-20T03:57:09;16.80;99.90
29813;DHT22;16707;48.106;11.548;2023-08-20T03:59:36;16.90;99.90
29813;DHT22;16707;48.106;11.548;2023-08-20T04:02:03;16.90;99.90
29813;DHT22;16707;48.106;11.548;2023-08-20T04:04:32;16.90;99.90
29813;DHT22;16707;48.106;11.548;2023-08-20T04:06:59;16.90;99.90
29813;DHT22;16707;48.106;11.548;2023-08-20T04:09:26;16.90;99.90
29813;DHT22;16707;48.106;11.548;2023-08-20T04:11:53;16.90;99.90
29813;DHT22;16707;48.106;11.548;2023-08-20T04:14:20;17.00;99.90
29813;DHT22;16707;48.106;11.548;2023-08-20T04:16:47;17.00;99.90
29813;DHT22;16707;48.106;11.548;2023-08-20T04:19:14;17.00;99.90
29813;DHT22;16707;48.106;11.548;2023-08-20T04:21:42;17.00;99.90
29813;DHT22;16707;48.106;11.548;2023-08-20T04:24:09;17.00;99.90
29813;DHT22;16707;48.106;11.548;2023-08-20T04:26:36;17.00;99.90
29813;DHT22;16707;48.106;11.548;2023-08-20T04:29:03;17.00;99.90
29813;DHT22;16707;48.106;11.548;2023-08-20T04:31:31;17.00;99.90
29813;DHT22;16707;48.106;11.548;2023-08-20T04:33:58;17.10;99.90
29813;DHT22;16707;48.106;11.548;2023-08-20T04:36:25;17.10;99.90
29813;DHT22;16707;48.106;11.548;2023-08-20T04:38:54;17.10;99.90
29813;DHT22;16707;48.106;11.548;2023-08-20T04:41:21;17.20;99.90
29813;DHT22;16707;48.106;11.548;2023-08-20T04:43:48;17.20;99.90
29813;DHT22;16707;48.106;11.548;2023-08-20T04:46:15;17.30;99.90
29813;DHT22;16707;48.106;11.548;2023-08-20T04:48:42;17.40;99.90
29813;DHT22;16707;48.106;11.548;2023-08-20T04:51:09;17.40;99.90
29813;DHT22;16707;48.106;11.548;2023-08-20T04:53:36;17.50;99.90
29813;DHT22;16707;48.106;11.548;2023-08-20T04:56:05;17.50;99.90
29813;DHT22;16707;48.106;11.548;2023-08-20T04:58:32;17.50;99.90
29813;DHT22;16707;48.106;11.548;2023-08-20T05:00:59;17.50;99.90
29813;DHT22;16707;48.106;11.548;2023-08-20T05:03:26;17.60;99.90
29813;DHT22;16707;48.106;11.548;2023-08-20T05:05:53;17.60;99.90
29813;DHT22;16707;48.106;11.548;2023-08-20T05:08:20;17.60;99.90
29813;DHT22;16707;48.106;11.548;2023-08-20T05:10:49;17.70;99.90
29813;DHT22;16707;48.106;11.548;2023-08-20T05:13:17;17.70;99.90
29813;DHT22;16707;48.106;11.548;2023-08-20T05:15:46;17.80;99.90
29813;DHT22;16707;48.106;11.548;2023-08-20T05:18:13;17.90;99.90
29813;DHT22;16707;48.106;11.548;2023-08-20T05:20:40;18.00;99.90
29813;DHT22;16707;48.106;11.548;2023-08-20T05:23:07;18.20;99.90
29813;DHT22;16707;48.106;11.548;2023-08-20T05:25:34;18.70;99.90
29813;DHT22;16707;48.106;11.548;2023-08-20T05:28:02;22.30;99.90
29813;DHT22;16707;48.106;11.548;2023-08-20T05:30:30;23.80;99.90
29813;DHT22;16707;48.106;11.548;2023-08-20T05:32:57;24.90;99.90
29813;DHT22;16707;48.106;11.548;2023-08-20T05:35:24;28.60;99.90
29813;DHT22;16707;48.106;11.548;2023-08-20T05:37:51;31.10;89.30
29813;DHT22;16707;48.106;11.548;2023-08-20T05:40:18;32.60;74.80
29813;DHT22;16707;48.106;11.548;2023-08-20T05:42:46;32.60;66.10
29813;DHT22;16707;48.106;11.548;2023-08-20T05:45:13;34.40;62.80
29813;DHT22;16707;48.106;11.548;2023-08-20T05:47:41;34.60;57.80
29813;DHT22;16707;48.106;11.548;2023-08-20T05:50:09;34.50;56.20
29813;DHT22;16707;48.106;11.548;2023-08-20T05:52:36;34.90;55.80
29813;DHT22;16707;48.106;11.548;2023-08-20T05:55:03;35.10;55.20
29813;DHT22;16707;48.106;11.548;2023-08-20T05:57:32;37.00;51.50
29813;DHT22;16707;48.106;11.548;2023-08-20T05:59:59;38.70;47.90
29813;DHT22;16707;48.106;11.548;2023-08-20T06:02:26;37.30;47.80
29813;DHT22;16707;48.106;11.548;2023-08-20T06:04:54;37.60;47.90
29813;DHT22;16707;48.106;11.548;2023-08-20T06:07:21;37.50;47.10
29813;DHT22;16707;48.106;11.548;2023-08-20T06:09:48;38.90;46.20
29813;DHT22;16707;48.106;11.548;2023-08-20T06:12:15;39.50;44.30
29813;DHT22;16707;48.106;11.548;2023-08-20T06:14:43;39.90;42.10
29813;DHT22;16707;48.106;11.548;2023-08-20T06:17:10;39.20;42.70
29813;DHT22;16707;48.106;11.548;2023-08-20T06:19:37;39.00;43.40
29813;DHT22;16707;48.106;11.548;2023-08-20T06:22:05;39.60;42.60
29813;DHT22;16707;48.106;11.548;2023-08-20T06:24:32;40.10;42.40
29813;DHT22;16707;48.106;11.548;2023-08-20T06:26:59;40.20;40.20
29813;DHT22;16707;48.106;11.548;2023-08-20T06:29:28;40.40;41.00
29813;DHT22;16707;48.106;11.548;2023-08-20T06:31:55;40.60;40.30
29813;DHT22;16707;48.106;11.548;2023-08-20T06:34:23;40.80;40.30
29813;DHT22;16707;48.106;11.548;2023-08-20T06:36:52;40.60;39.40
29813;DHT22;16707;48.106;11.548;2023-08-20T06:39:21;41.00;39.60
29813;DHT22;16707;48.106;11.548;2023-08-20T06:41:48;41.40;36.70
29813;DHT22;16707;48.106;11.548;2023-08-20T06:44:15;41.50;38.20
29813;DHT22;16707;48.106;11.548;2023-08-20T06:46:42;41.00;36.50
29813;DHT22;16707;48.106;11.548;2023-08-20T06:49:09;41.00;37.20
29813;DHT22;16707;48.106;11.548;2023-08-20T06:51:38;40.20;37.00
29813;DHT22;16707;48.106;11.548;2023-08-20T06:54:05;38.10;38.00
29813;DHT22;16707;48.106;11.548;2023-08-20T06:56:34;36.50;39.00
29813;DHT22;16707;48.106;11.548;2023-08-20T06:59:01;34.30;43.20
29813;DHT22;16707;48.106;11.548;2023-08-20T07:01:29;32.20;48.50
29813;DHT22;16707;48.106;11.548;2023-08-20T07:03:56;30.80;54.20
29813;DHT22;16707;48.106;11.548;2023-08-20T07:06:23;29.80;57.90
29813;DHT22;16707;48.106;11.548;2023-08-20T07:08:50;29.30;59.20
29813;DHT22;16707;48.106;11.548;2023-08-20T07:11:17;28.90;63.90
29813;DHT22;16707;48.106;11.548;2023-08-20T07:13:45;29.10;65.00
29813;DHT22;16707;48.106;11.548;2023-08-20T07:16:12;29.10;62.90
29813;DHT22;16707;48.106;11.548;2023-08-20T07:18:40;29.00;64.90
29813;DHT22;16707;48.106;11.548;2023-08-20T07:21:07;28.70;68.70
29813;DHT22;16707;48.106;11.548;2023-08-20T07:23:34;28.40;70.40
29813;DHT22;16707;48.106;11.548;2023-08-20T07:26:05;27.70;73.20
29813;DHT22;16707;48.106;11.548;2023-08-20T07:28:36;27.20;75.50
29813;DHT22;16707;48.106;11.548;2023-08-20T07:31:22;26.90;77.00
29813;DHT22;16707;48.106;11.548;2023-08-20T07:33:50;26.80;76.10
29813;DHT22;16707;48.106;11.548;2023-08-20T07:36:24;26.60;77.80
29813;DHT22;16707;48.106;11.548;2023-08-20T07:38:53;26.50;78.00
29813;DHT22;16707;48.106;11.548;2023-08-20T07:41:20;26.50;76.50
29813;DHT22;16707;48.106;11.548;2023-08-20T07:43:49;26.60;76.20
29813;DHT22;16707;48.106;11.548;2023-08-20T07:46:16;26.50;77.70
29813;DHT22;16707;48.106;11.548;2023-08-20T07:48:44;26.40;76.20
29813;DHT22;16707;48.106;11.548;2023-08-20T07:51:11;26.40;74.80
29813;DHT22;16707;48.106;11.548;2023-08-20T07:53:41;26.60;76.00
29813;DHT22;16707;48.106;11.548;2023-08-20T07:56:08;26.50;74.30
29813;DHT22;16707;48.106;11.548;2023-08-20T07:58:37;26.50;74.80
29813;DHT22;16707;48.106;11.548;2023-08-20T08:01:04;26.60;72.90
29813;DHT22;16707;48.106;11.548;2023-08-20T08:03:31;26.70;73.40
29813;DHT22;16707;48.106;11.548;2023-08-20T08:06:00;26.70;73.70
29813;DHT22;16707;48.106;11.548;2023-08-20T08:08:27;26.70;74.00
29813;DHT22;16707;48.106;11.548;2023-08-20T08:10:54;26.80;75.50
29813;DHT22;16707;48.106;11.548;2023-08-20T08:13:22;26.80;77.30
29813;DHT22;16707;48.106;11.548;2023-08-20T08:15:50;26.80;74.10
29813;DHT22;16707;48.106;11.548;2023-08-20T08:18:18;26.90;75.40
29813;DHT22;16707;48.106;11.548;2023-08-20T08:20:45;27.10;72.50
29813;DHT22;16707;48.106;11.548;2023-08-20T08:23:14;27.20;72.50
29813;DHT22;16707;48.106;11.548;2023-08-20T08:25:41;27.20;73.30
29813;DHT22;16707;48.106;11.548;2023-08-20T08:28:08;27.30;72.50
29813;DHT22;16707;48.106;11.548;2023-08-20T08:30:35;27.40;73.90
29813;DHT22;16707;48.106;11.548;2023-08-20T08:33:02;27.50;68.10
29813;DHT22;16707;48.106;11.548;2023-08-20T08:35:29;27.60;64.90
29813;DHT22;16707;48.106;11.548;2023-08-20T08:37:56;27.70;63.10
29813;DHT22;16707;48.106;11.548;2023-08-20T08:40:28;27.80;64.30
29813;DHT22;16707;48.106;11.548;2023-08-20T08:42:59;27.90;65.30
29813;DHT22;16707;48.106;11.548;2023-08-20T08:45:26;28.00;62.80
29813;DHT22;16707;48.106;11.548;2023-08-20T08:47:54;28.10;62.70
29813;DHT22;16707;48.106;11.548;2023-08-20T08:50:21;28.20;63.30
29813;DHT22;16707;48.106;11.548;2023-08-20T08:52:52;28.30;62.90
29813;DHT22;16707;48.106;11.548;2023-08-20T08:55:20;28.50;60.80
29813;DHT22;16707;48.106;11.548;2023-08-20T08:57:49;28.60;60.90
29813;DHT22;16707;48.106;11.548;2023-08-20T09:00:16;28.60;61.10
29813;DHT22;16707;48.106;11.548;2023-08-20T09:02:43;28.70;60.80
29813;DHT22;16707;48.106;11.548;2023-08-20T09:05:13;28.80;60.20
29813;DHT22;16707;48.106;11.548;2023-08-20T09:07:42;28.90;59.60
29813;DHT22;16707;48.106;11.548;2023-08-20T09:10:10;28.80;60.00
29813;DHT22;16707;48.106;11.548;2023-08-20T09:12:37;29.00;61.00
29813;DHT22;16707;48.106;11.548;2023-08-20T09:15:10;29.00;60.40
29813;DHT22;16707;48.106;11.548;2023-08-20T09:17:37;29.20;58.70
29813;DHT22;16707;48.106;11.548;2023-08-20T09:20:05;29.20;57.60
29813;DHT22;16707;48.106;11.548;2023-08-20T09:22:35;29.30;57.70
29813;DHT22;16707;48.106;11.548;2023-08-20T09:25:04;29.20;56.60
29813;DHT22;16707;48.106;11.548;2023-08-20T09:27:38;29.40;58.00
29813;DHT22;16707;48.106;11.548;2023-08-20T09:30:08;29.40;57.10
29813;DHT22;16707;48.106;11.548;2023-08-20T09:32:35;29.50;57.30
29813;DHT22;16707;48.106;11.548;2023-08-20T09:35:03;29.50;56.40
29813;DHT22;16707;48.106;11.548;2023-08-20T09:37:32;29.70;56.30
29813;DHT22;16707;48.106;11.548;2023-08-20T09:40:00;29.80;56.60
29813;DHT22;16707;48.106;11.548;2023-08-20T09:42:30;29.70;55.20
29813;DHT22;16707;48.106;11.548;2023-08-20T09:44:59;29.80;54.70
29813;DHT22;16707;48.106;11.548;2023-08-20T09:47:33;29.80;54.50
29813;DHT22;16707;48.106;11.548;2023-08-20T09:50:02;29.90;53.50
29813;DHT22;16707;48.106;11.548;2023-08-20T09:52:39;29.90;52.60
29813;DHT22;16707;48.106;11.548;2023-08-20T09:55:08;30.10;52.90
29813;DHT22;16707;48.106;11.548;2023-08-20T09:57:37;30.20;52.90
29813;DHT22;16707;48.106;11.548;2023-08-20T10:00:10;30.30;53.40
29813;DHT22;16707;48.106;11.548;2023-08-20T10:02:39;30.40;52.50
29813;DHT22;16707;48.106;11.548;2023-08-20T10:05:08;30.50;52.00
29813;DHT22;16707;48.106;11.548;2023-08-20T10:07:36;30.60;50.70
29813;DHT22;16707;48.106;11.548;2023-08-20T10:10:05;30.60;48.90
29813;DHT22;16707;48.106;11.548;2023-08-20T10:12:33;30.60;49.40
29813;DHT22;16707;48.106;11.548;2023-08-20T10:15:01;30.60;50.30
29813;DHT22;16707;48.106;11.548;2023-08-20T10:17:30;30.50;51.10
29813;DHT22;16707;48.106;11.548;2023-08-20T10:19:59;30.50;50.90
29813;DHT22;16707;48.106;11.548;2023-08-20T10:22:32;30.80;50.20
29813;DHT22;16707;48.106;11.548;2023-08-20T10:25:00;30.70;50.30
29813;DHT22;16707;48.106;11.548;2023-08-20T10:27:31;30.80;49.50
29813;DHT22;16707;48.106;11.548;2023-08-20T10:29:59;31.00;48.70
29813;DHT22;16707;48.106;11.548;2023-08-20T10:32:48;31.00;48.70
29813;DHT22;16707;48.106;11.548;2023-08-20T10:35:18;31.00;49.30
29813;DHT22;16707;48.106;11.548;2023-08-20T10:38:02;31.10;50.10
29813;DHT22;16707;48.106;11.548;2023-08-20T10:40:51;31.10;48.70
29813;DHT22;16707;48.106;11.548;2023-08-20T10:43:29;31.30;48.40
29813;DHT22;16707;48.106;11.548;2023-08-20T10:46:15;31.40;48.40
29813;DHT22;16707;48.106;11.548;2023-08-20T10:48:46;31.40;48.50
29813;DHT22;16707;48.106;11.548;2023-08-20T10:51:16;31.20;49.10
29813;DHT22;16707;48.106;11.548;2023-08-20T10:53:48;31.10;50.10
29813;DHT22;16707;48.106;11.548;2023-08-20T10:56:43;31.20;48.60
29813;DHT22;16707;48.106;11.548;2023-08-20T10:59:14;31.30;48.60
29813;DHT22;16707;48.106;11.548;2023-08-20T11:01:44;31.40;47.80
29813;DHT22;16707;48.106;11.548;2023-08-20T11:04:13;31.40;45.40
29813;DHT22;16707;48.106;11.548;2023-08-20T11:06:42;31.40;46.30
29813;DHT22;16707;48.106;11.548;2023-08-20T11:09:10;31.40;44.60
29813;DHT22;16707;48.106;11.548;2023-08-20T11:11:37;31.50;46.10
29813;DHT22;16707;48.106;11.548;2023-08-20T11:14:06;31.50;46.40
29813;DHT22;16707;48.106;11.548;2023-08-20T11:16:34;31.60;45.50
29813;DHT22;16707;48.106;11.548;2023-08-20T11:19:02;31.70;45.10
29813;DHT22;16707;48.106;11.548;2023-08-20T11:21:34;31.80;45.50
29813;DHT22;16707;48.106;11.548;2023-08-20T11:24:03;31.80;45.50
29813;DHT22;16707;48.106;11.548;2023-08-20T11:26:30;32.00;46.40
29813;DHT22;16707;48.106;11.548;2023-08-20T11:28:57;32.00;46.50
29813;DHT22;16707;48.106;11.548;2023-08-20T11:31:25;31.90;47.00
29813;DHT22;16707;48.106;11.548;2023-08-20T11:33:52;31.90;45.90
29813;DHT22;16707;48.106;11.548;2023-08-20T11:36:20;32.00;46.50
29813;DHT22;16707;48.106;11.548;2023-08-20T11:38:50;32.10;46.10
29813;DHT22;16707;48.106;11.548;2023-08-20T11:41:19;32.20;46.40
29813;DHT22;16707;48.106;11.548;2023-08-20T11:43:47;32.30;45.70
29813;DHT22;16707;48.106;11.548;2023-08-20T11:46:14;32.40;45.10
29813;DHT22;16707;48.106;11.548;2023-08-20T11:49:00;32.50;44.90
29813;DHT22;16707;48.106;11.548;2023-08-20T11:51:28;32.40;43.20
29813;DHT22;16707;48.106;11.548;2023-08-20T11:53:56;32.50;43.60
29813;DHT22;16707;48.106;11.548;2023-08-20T11:56:26;32.30;43.80
29813;DHT22;16707;48.106;11.548;2023-08-20T11:58:59;32.40;45.20
29813;DHT22;16707;48.106;11.548;2023-08-20T12:01:30;32.40;46.60
29813;DHT22;16707;48.106;11.548;2023-08-20T12:04:00;32.50;45.00
29813;DHT22;16707;48.106;11.548;2023-08-20T12:06:28;32.60;45.40
29813;DHT22;16707;48.106;11.548;2023-08-20T12:08:56;32.50;44.40
29813;DHT22;16707;48.106;11.548;2023-08-20T12:11:25;32.50;44.80
29813;DHT22;16707;48.106;11.548;2023-08-20T12:13:52;32.60;45.80
29813;DHT22;16707;48.106;11.548;2023-08-20T12:16:22;32.70;45.20
29813;DHT22;16707;48.106;11.548;2023-08-20T12:18:51;32.60;44.90
29813;DHT22;16707;48.106;11.548;2023-08-20T12:21:18;32.60;45.50
29813;DHT22;16707;48.106;11.548;2023-08-20T12:23:45;32.70;46.60
29813;DHT22;16707;48.106;11.548;2023-08-20T12:26:12;32.70;46.60
29813;DHT22;16707;48.106;11.548;2023-08-20T12:28:41;32.70;46.50
29813;DHT22;16707;48.106;11.548;2023-08-20T12:31:08;32.70;46.30
29813;DHT22;16707;48.106;11.548;2023-08-20T12:33:35;32.80;45.10
29813;DHT22;16707;48.106;11.548;2023-08-20T12:36:02;32.60;47.00
29813;DHT22;16707;48.106;11.548;2023-08-20T12:38:29;32.50;46.80
29813;DHT22;16707;48.106;11.548;2023-08-20T12:40:59;32.30;46.60
29813;DHT22;16707;48.106;11.548;2023-08-20T12:43:26;32.30;47.00
29813;DHT22;16707;48.106;11.548;2023-08-20T12:45:55;32.50;47.50
29813;DHT22;16707;48.106;11.548;2023-08-20T12:48:22;32.60;47.70
29813;DHT22;16707;48.106;11.548;2023-08-20T12:50:49;32.70;47.10
29813;DHT22;16707;48.106;11.548;2023-08-20T12:53:16;32.80;47.30
29813;DHT22;16707;48.106;11.548;2023-08-20T12:55:43;32.90;47.10
29813;DHT22;16707;48.106;11.548;2023-08-20T12:58:10;32.80;46.50
29813;DHT22;16707;48.106;11.548;2023-08-20T13:00:37;32.70;47.30
29813;DHT22;16707;48.106;11.548;2023-08-20T13:03:07;32.70;46.50
29813;DHT22;16707;48.106;11.548;2023-08-20T13:05:35;32.80;47.10
29813;DHT22;16707;48.106;11.548;2023-08-20T13:08:03;32.90;46.60
29813;DHT22;16707;48.106;11.548;2023-08-20T13:10:31;32.90;45.80
29813;DHT22;16707;48.106;11.548;2023-08-20T13:13:01;32.70;45.80
29813;DHT22;16707;48.106;11.548;2023-08-20T13:15:29;32.50;46.00
29813;DHT22;16707;48.106;11.548;2023-08-20T13:17:57;32.60;46.30
29813;DHT22;16707;48.106;11.548;2023-08-20T13:20:26;32.70;46.20
29813;DHT22;16707;48.106;11.548;2023-08-20T13:22:53;32.80;46.70
29813;DHT22;16707;48.106;11.548;2023-08-20T13:25:20;32.90;46.10
29813;DHT22;16707;48.106;11.548;2023-08-20T13:27:47;32.80;45.60
29813;DHT22;16707;48.106;11.548;2023-08-20T13:30:15;32.90;45.80
29813;DHT22;16707;48.106;11.548;2023-08-20T13:32:43;32.90;46.00
29813;DHT22;16707;48.106;11.548;2023-08-20T13:35:10;32.80;45.60
29813;DHT22;16707;48.106;11.548;2023-08-20T13:37:38;32.80;46.00
29813;DHT22;16707;48.106;11.548;2023-08-20T13:40:07;32.80;46.30
29813;DHT22;16707;48.106;11.548;2023-08-20T13:42:35;32.90;46.30
29813;DHT22;16707;48.106;11.548;2023-08-20T13:45:02;33.10;46.60
29813;DHT22;16707;48.106;11.548;2023-08-20T13:47:30;33.10;45.20
29813;DHT22;16707;48.106;11.548;2023-08-20T13:49:57;32.90;45.40
29813;DHT22;16707;48.106;11.548;2023-08-20T13:52:24;32.90;45.90
29813;DHT22;16707;48.106;11.548;2023-08-20T13:54:53;32.70;46.20
29813;DHT22;16707;48.106;11.548;2023-08-20T13:57:20;32.50;46.70
29813;DHT22;16707;48.106;11.548;2023-08-20T13:59:47;32.40;47.10
29813;DHT22;16707;48.106;11.548;2023-08-20T14:02:14;32.50;46.00
29813;DHT22;16707;48.106;11.548;2023-08-20T14:04:41;32.60;45.50
29813;DHT22;16707;48.106;11.548;2023-08-20T14:07:08;32.60;44.50
29813;DHT22;16707;48.106;11.548;2023-08-20T14:09:35;32.50;45.40
29813;DHT22;16707;48.106;11.548;2023-08-20T14:12:04;32.60;46.40
29813;DHT22;16707;48.106;11.548;2023-08-20T14:14:31;32.60;47.10
29813;DHT22;16707;48.106;11.548;2023-08-20T14:16:58;32.70;47.00
29813;DHT22;16707;48.106;11.548;2023-08-20T14:19:25;32.80;46.50
29813;DHT22;16707;48.106;11.548;2023-08-20T14:21:52;32.80;46.70
29813;DHT22;16707;48.106;11.548;2023-08-20T14:24:19;32.70;47.10
29813;DHT22;16707;48.106;11.548;2023-08-20T14:26:46;32.70;46.40
29813;DHT22;16707;48.106;11.548;2023-08-20T14:29:14;32.80;46.30
29813;DHT22;16707;48.106;11.548;2023-08-20T14:31:41;32.80;44.50
29813;DHT22;16707;48.106;11.548;2023-08-20T14:34:08;32.80;44.90
29813;DHT22;16707;48.106;11.548;2023-08-20T14:36:36;32.90;44.60
29813;DHT22;16707;48.106;11.548;2023-08-20T14:39:05;32.90;44.90
29813;DHT22;16707;48.106;11.548;2023-08-20T14:41:32;32.90;45.80
29813;DHT22;16707;48.106;11.548;2023-08-20T14:43:59;32.90;46.80
29813;DHT22;16707;48.106;11.548;2023-08-20T14:46:28;32.90;46.10
29813;DHT22;16707;48.106;11.548;2023-08-20T14:48:55;32.90;47.20
29813;DHT22;16707;48.106;11.548;2023-08-20T14:51:22;33.00;45.80
29813;DHT22;16707;48.106;11.548;2023-08-20T14:53:50;32.90;45.00
29813;DHT22;16707;48.106;11.548;2023-08-20T14:56:16;32.90;45.40
29813;DHT22;16707;48.106;11.548;2023-08-20T14:58:44;32.90;44.70
29813;DHT22;16707;48.106;11.548;2023-08-20T15:01:10;32.90;44.60
29813;DHT22;16707;48.106;11.548;2023-08-20T15:03:39;32.70;46.80
29813;DHT22;16707;48.106;11.548;2023-08-20T15:06:06;32.70;47.50
29813;DHT22;16707;48.106;11.548;2023-08-20T15:08:33;32.60;47.30
29813;DHT22;16707;48.106;11.548;2023-08-20T15:11:01;32.60;47.80
29813;DHT22;16707;48.106;11.548;2023-08-20T15:13:28;32.60;48.10
29813;DHT22;16707;48.106;11.548;2023-08-20T15:15:57;32.70;47.80
29813;DHT22;16707;48.106;11.548;2023-08-20T15:18:24;32.60;47.10
29813;DHT22;16707;48.106;11.548;2023-08-20T15:20:56;32.50;48.00
29813;DHT22;16707;48.106;11.548;2023-08-20T15:23:24;32.40;48.80